createdAt,value
2019-04-05T00:00:20.190Z,995.94
2019-04-05T00:01:20.206Z,995.93
2019-04-05T00:02:20.191Z,995.95
2019-04-05T00:03:20.162Z,995.95
2019-04-05T00:04:20.173Z,995.95
2019-04-05T00:05:20.136Z,995.95
2019-04-05T00:06:20.124Z,995.94
2019-04-05T00:07:20.138Z,995.94
2019-04-05T00:08:20.117Z,995.96
2019-04-05T00:09:20.098Z,995.92
2019-04-05T00:10:20.105Z,995.96
2019-04-05T00:11:20.076Z,995.95
2019-04-05T00:12:20.080Z,995.95
2019-04-05T00:13:20.064Z,995.96
2019-04-05T00:14:20.059Z,995.98
2019-04-05T00:15:20.042Z,995.97
2019-04-05T00:16:20.029Z,995.97
2019-04-05T00:17:20.009Z,995.98
2019-04-05T00:18:20.023Z,995.96
2019-04-05T00:19:19.985Z,995.98
2019-04-05T00:20:19.994Z,995.94
2019-04-05T00:21:19.970Z,995.97
2019-04-05T00:22:19.959Z,995.97
2019-04-05T00:23:19.943Z,995.96
2019-04-05T00:24:19.947Z,995.96
2019-04-05T00:25:19.958Z,995.97
2019-04-05T00:26:19.915Z,996.02
2019-04-05T00:27:19.905Z,995.98
2019-04-05T00:28:19.893Z,995.94
2019-04-05T00:29:19.878Z,995.96
2019-04-05T00:30:19.884Z,995.96
2019-04-05T00:31:19.856Z,995.96
2019-04-05T00:32:19.845Z,995.99
2019-04-05T00:33:19.841Z,995.93
2019-04-05T00:34:19.826Z,995.95
2019-04-05T00:35:19.854Z,995.96
2019-04-05T00:36:19.804Z,995.94
2019-04-05T00:37:19.795Z,995.95
2019-04-05T00:38:19.782Z,995.94
2019-04-05T00:39:19.773Z,995.92
2019-04-05T00:40:19.764Z,995.95
2019-04-05T00:41:19.766Z,995.92
2019-04-05T00:42:19.733Z,995.98
2019-04-05T00:43:19.725Z,995.97
2019-04-05T00:44:19.713Z,995.99
2019-04-05T00:45:28.081Z,996.01
2019-04-05T00:46:20.723Z,996.02
2019-04-05T00:47:19.686Z,996.03
2019-04-05T00:48:19.676Z,996.03
2019-04-05T00:49:19.666Z,996.01
2019-04-05T00:50:19.647Z,996.01
2019-04-05T00:51:19.644Z,996.03
2019-04-05T00:52:19.648Z,996.03
2019-04-05T00:53:19.625Z,996.04
2019-04-05T00:54:19.609Z,996.03
2019-04-05T00:55:19.596Z,996.06
2019-04-05T00:56:19.613Z,996.06
2019-04-05T00:57:19.613Z,996.08
2019-04-05T00:58:19.574Z,996.08
2019-04-05T00:59:19.556Z,996.07
2019-04-05T01:00:19.545Z,996.07
2019-04-05T01:01:19.571Z,996.07
2019-04-05T01:02:19.519Z,996.05
2019-04-05T01:03:19.527Z,996.06
2019-04-05T01:04:19.498Z,996.08
2019-04-05T01:05:19.494Z,996.10
2019-04-05T01:06:19.484Z,996.06
2019-04-05T01:07:19.493Z,996.04
2019-04-05T01:08:19.482Z,996.08
2019-04-05T01:09:19.449Z,996.12
2019-04-05T01:10:19.449Z,996.17
2019-04-05T01:11:19.427Z,996.20
2019-04-05T01:12:19.421Z,996.22
2019-04-05T01:13:19.421Z,996.25
2019-04-05T01:14:19.420Z,996.27
2019-04-05T01:15:19.381Z,996.27
2019-04-05T01:16:19.375Z,996.27
2019-04-05T01:17:24.888Z,996.33
2019-04-05T01:18:20.350Z,996.31
2019-04-05T01:19:19.376Z,996.31
2019-04-05T01:20:19.333Z,996.28
2019-04-05T01:21:19.313Z,996.30
2019-04-05T01:22:19.306Z,996.36
2019-04-05T01:23:19.931Z,996.34
2019-04-05T01:24:19.334Z,996.32
2019-04-05T01:25:19.358Z,996.30
2019-04-05T01:26:19.264Z,996.31
2019-04-05T01:27:19.257Z,996.28
2019-04-05T01:28:19.236Z,996.29
2019-04-05T01:29:19.938Z,996.29
2019-04-05T01:30:19.249Z,996.31
2019-04-05T01:31:19.253Z,996.32
2019-04-05T01:32:19.200Z,996.33
2019-04-05T01:33:19.249Z,996.34
2019-04-05T01:34:19.172Z,996.33
2019-04-05T01:35:19.340Z,996.33
2019-04-05T01:36:19.158Z,996.38
2019-04-05T01:37:19.199Z,996.38
2019-04-05T01:38:19.144Z,996.42
2019-04-05T01:39:19.160Z,996.37
2019-04-05T01:40:19.140Z,996.39
2019-04-05T01:41:19.095Z,996.41
2019-04-05T01:42:19.085Z,996.40
2019-04-05T01:43:19.100Z,996.43
2019-04-05T01:44:19.071Z,996.41
2019-04-05T01:45:19.102Z,996.38
2019-04-05T01:46:19.043Z,996.43
2019-04-05T01:47:19.031Z,996.44
2019-04-05T01:48:19.020Z,996.45
2019-04-05T01:49:19.021Z,996.45
2019-04-05T01:50:19.007Z,996.48
2019-04-05T01:51:19.024Z,996.49
2019-04-05T01:52:18.984Z,996.50
2019-04-05T01:53:18.968Z,996.50
2019-04-05T01:54:18.959Z,996.49
2019-04-05T01:55:18.943Z,996.50
2019-04-05T01:56:18.938Z,996.51
2019-04-05T01:57:18.959Z,996.53
2019-04-05T01:58:18.918Z,996.50
2019-04-05T01:59:18.910Z,996.53
2019-04-05T02:00:18.900Z,996.50
2019-04-05T02:01:18.887Z,996.53
2019-04-05T02:02:18.895Z,996.50
2019-04-05T02:03:18.907Z,996.53
2019-04-05T02:04:18.856Z,996.54
2019-04-05T02:05:18.834Z,996.54
2019-04-05T02:06:18.824Z,996.54
2019-04-05T02:07:18.815Z,996.58
2019-04-05T02:08:18.802Z,996.56
2019-04-05T02:09:18.824Z,996.60
2019-04-05T02:10:18.790Z,996.63
2019-04-05T02:11:18.778Z,996.57
2019-04-05T02:12:18.764Z,996.64
2019-04-05T02:13:18.784Z,996.56
2019-04-05T02:14:18.738Z,996.60
2019-04-05T02:15:18.734Z,996.59
2019-04-05T02:16:18.724Z,996.61
2019-04-05T02:17:18.705Z,996.61
2019-04-05T02:18:18.716Z,996.60
2019-04-05T02:19:18.687Z,996.63
2019-04-05T02:20:18.673Z,996.64
2019-04-05T02:21:18.667Z,996.61
2019-04-05T02:22:18.661Z,996.63
2019-04-05T02:23:18.671Z,996.60
2019-04-05T02:24:18.635Z,996.60
2019-04-05T02:25:18.618Z,996.59
2019-04-05T02:26:18.605Z,996.60
2019-04-05T02:27:18.598Z,996.58
2019-04-05T02:28:18.606Z,996.53
2019-04-05T02:29:18.609Z,996.54
2019-04-05T02:30:18.570Z,996.53
2019-04-05T02:31:18.552Z,996.55
2019-04-05T02:32:18.541Z,996.53
2019-04-05T02:33:18.562Z,996.54
2019-04-05T02:34:18.527Z,996.50
2019-04-05T02:35:18.558Z,996.58
2019-04-05T02:36:18.504Z,996.52
2019-04-05T02:37:18.491Z,996.53
2019-04-05T02:38:18.483Z,996.50
2019-04-05T02:39:18.471Z,996.52
2019-04-05T02:40:18.458Z,996.54
2019-04-05T02:41:18.471Z,996.55
2019-04-05T02:42:18.465Z,996.55
2019-04-05T02:43:18.434Z,996.59
2019-04-05T02:44:18.419Z,996.54
2019-04-05T02:45:18.475Z,996.54
2019-04-05T02:46:23.919Z,996.57
2019-04-05T02:47:19.383Z,996.58
2019-04-05T02:48:18.392Z,996.56
2019-04-05T02:49:18.353Z,996.56
2019-04-05T02:50:18.350Z,996.58
2019-04-05T02:51:18.361Z,996.59
2019-04-05T02:52:18.326Z,996.61
2019-04-05T02:53:18.317Z,996.59
2019-04-05T02:54:18.310Z,996.61
2019-04-05T02:55:18.297Z,996.55
2019-04-05T02:56:18.308Z,996.63
2019-04-05T02:57:18.258Z,996.60
2019-04-05T02:58:18.247Z,996.61
2019-04-05T02:59:18.243Z,996.56
2019-04-05T03:00:18.237Z,996.52
2019-04-05T03:01:18.224Z,996.55
2019-04-05T03:02:18.241Z,996.59
2019-04-05T03:03:18.197Z,996.58
2019-04-05T03:04:18.183Z,996.60
2019-04-05T03:05:18.189Z,996.56
2019-04-05T03:06:18.170Z,996.59
2019-04-05T03:07:18.176Z,996.61
2019-04-05T03:08:18.161Z,996.60
2019-04-05T03:09:18.132Z,996.64
2019-04-05T03:10:18.119Z,996.66
2019-04-05T03:11:18.130Z,996.62
2019-04-05T03:12:19.251Z,996.61
2019-04-05T03:13:18.091Z,996.65
2019-04-05T03:14:18.101Z,996.71
2019-04-05T03:15:18.069Z,996.71
2019-04-05T03:16:18.063Z,996.69
2019-04-05T03:17:18.042Z,996.70
2019-04-05T03:18:18.033Z,996.70
2019-04-05T03:19:18.051Z,996.69
2019-04-05T03:20:18.017Z,996.73
2019-04-05T03:21:18.032Z,996.82
2019-04-05T03:22:17.987Z,996.78
2019-04-05T03:23:17.977Z,996.77
2019-04-05T03:24:17.969Z,996.82
2019-04-05T03:25:17.963Z,996.82
2019-04-05T03:26:17.951Z,996.83
2019-04-05T03:27:17.957Z,996.85
2019-04-05T03:28:17.928Z,996.83
2019-04-05T03:29:17.928Z,996.85
2019-04-05T03:30:17.910Z,996.81
2019-04-05T03:31:23.914Z,996.85
2019-04-05T03:32:18.897Z,996.86
2019-04-05T03:33:17.873Z,996.83
2019-04-05T03:34:17.894Z,996.88
2019-04-05T03:35:17.850Z,996.86
2019-04-05T03:36:17.835Z,996.89
2019-04-05T03:37:17.831Z,996.87
2019-04-05T03:38:17.817Z,996.87
2019-04-05T03:39:17.809Z,996.90
2019-04-05T03:40:17.818Z,996.92
2019-04-05T03:41:17.855Z,996.90
2019-04-05T03:42:17.768Z,996.90
2019-04-05T03:43:17.806Z,996.94
2019-04-05T03:44:17.750Z,996.95
2019-04-05T03:45:17.746Z,996.95
2019-04-05T03:46:17.733Z,996.97
2019-04-05T03:47:17.719Z,996.99
2019-04-05T03:48:17.710Z,997.00
2019-04-05T03:49:17.717Z,997.01
2019-04-05T03:50:17.709Z,996.99
2019-04-05T03:51:17.678Z,997.04
2019-04-05T03:52:17.668Z,997.00
2019-04-05T03:53:17.650Z,997.03
2019-04-05T03:54:17.667Z,997.04
2019-04-05T03:55:17.655Z,997.03
2019-04-05T03:56:17.628Z,997.05
2019-04-05T03:57:17.615Z,997.08
2019-04-05T03:58:17.600Z,997.07
2019-04-05T03:59:17.613Z,997.07
2019-04-05T04:00:17.579Z,997.11
2019-04-05T04:01:18.467Z,997.13
2019-04-05T04:02:17.553Z,997.09
2019-04-05T04:03:17.541Z,997.13
2019-04-05T04:04:17.563Z,997.10
2019-04-05T04:05:17.525Z,997.08
2019-04-05T04:06:17.529Z,997.07
2019-04-05T04:07:17.518Z,997.12
2019-04-05T04:08:17.493Z,997.12
2019-04-05T04:09:17.485Z,997.16
2019-04-05T04:10:17.493Z,997.17
2019-04-05T04:11:17.461Z,997.14
2019-04-05T04:12:17.450Z,997.21
2019-04-05T04:13:17.434Z,997.21
2019-04-05T04:14:17.423Z,997.20
2019-04-05T04:15:17.438Z,997.22
2019-04-05T04:16:17.425Z,997.21
2019-04-05T04:17:17.393Z,997.20
2019-04-05T04:18:17.384Z,997.22
2019-04-05T04:19:17.374Z,997.20
2019-04-05T04:20:17.389Z,997.18
2019-04-05T04:21:17.375Z,997.19
2019-04-05T04:22:17.335Z,997.23
2019-04-05T04:23:17.330Z,997.23
2019-04-05T04:24:17.322Z,997.26
2019-04-05T04:25:17.311Z,997.26
2019-04-05T04:26:17.299Z,997.26
2019-04-05T04:27:17.307Z,997.32
2019-04-05T04:28:17.274Z,997.34
2019-04-05T04:29:17.267Z,997.32
2019-04-05T04:30:17.360Z,997.35
2019-04-05T04:31:17.244Z,997.45
2019-04-05T04:32:17.252Z,997.43
2019-04-05T04:33:17.232Z,997.43
2019-04-05T04:34:17.209Z,997.45
2019-04-05T04:35:17.194Z,997.45
2019-04-05T04:36:17.186Z,997.47
2019-04-05T04:37:17.205Z,997.50
2019-04-05T04:38:17.168Z,997.53
2019-04-05T04:39:17.154Z,997.57
2019-04-05T04:40:17.156Z,997.55
2019-04-05T04:41:17.132Z,997.63
2019-04-05T04:42:17.144Z,997.60
2019-04-05T04:43:17.115Z,997.66
2019-04-05T04:44:17.106Z,997.67
2019-04-05T04:45:17.100Z,997.70
2019-04-05T04:46:17.075Z,997.74
2019-04-05T04:47:26.187Z,997.76
2019-04-05T04:48:18.052Z,997.75
2019-04-05T04:49:17.049Z,997.73
2019-04-05T04:50:17.038Z,997.75
2019-04-05T04:51:17.026Z,997.73
2019-04-05T04:52:17.013Z,997.78
2019-04-05T04:53:17.040Z,997.78
2019-04-05T04:54:16.991Z,997.81
2019-04-05T04:55:16.983Z,997.80
2019-04-05T04:56:17.009Z,997.82
2019-04-05T04:57:16.955Z,997.81
2019-04-05T04:58:16.974Z,997.82
2019-04-05T04:59:16.932Z,997.77
2019-04-05T05:00:16.922Z,997.85
2019-04-05T05:01:16.919Z,997.82
2019-04-05T05:02:16.905Z,997.86
2019-04-05T05:03:16.901Z,997.89
2019-04-05T05:04:16.910Z,997.85
2019-04-05T05:05:16.867Z,997.91
2019-04-05T05:06:16.880Z,997.91
2019-04-05T05:07:16.847Z,997.93
2019-04-05T05:08:16.856Z,998.01
2019-04-05T05:09:16.861Z,998.00
2019-04-05T05:10:16.819Z,997.93
2019-04-05T05:11:16.801Z,997.95
2019-04-05T05:12:16.790Z,997.98
2019-04-05T05:13:16.792Z,997.96
2019-04-05T05:14:16.777Z,997.95
2019-04-05T05:15:16.789Z,997.94
2019-04-05T05:16:16.753Z,997.98
2019-04-05T05:17:16.753Z,997.98
2019-04-05T05:18:16.732Z,998.01
2019-04-05T05:19:16.716Z,998.02
2019-04-05T05:20:16.724Z,998.01
2019-04-05T05:21:16.736Z,998.02
2019-04-05T05:22:16.689Z,998.04
2019-04-05T05:23:16.679Z,998.04
2019-04-05T05:24:16.690Z,998.03
2019-04-05T05:25:17.070Z,998.04
2019-04-05T05:26:16.642Z,998.05
2019-04-05T05:27:16.657Z,998.06
2019-04-05T05:28:16.627Z,998.06
2019-04-05T05:29:16.608Z,998.06
2019-04-05T05:30:16.625Z,998.07
2019-04-05T05:31:16.589Z,998.09
2019-04-05T05:32:16.620Z,998.14
2019-04-05T05:33:17.455Z,998.11
2019-04-05T05:34:16.573Z,998.15
2019-04-05T05:35:16.551Z,998.15
2019-04-05T05:36:16.576Z,998.13
2019-04-05T05:37:16.522Z,998.16
2019-04-05T05:38:16.510Z,998.13
2019-04-05T05:39:16.507Z,998.10
2019-04-05T05:40:16.509Z,998.13
2019-04-05T05:41:16.521Z,998.15
2019-04-05T05:42:16.472Z,998.17
2019-04-05T05:43:16.457Z,998.21
2019-04-05T05:44:16.449Z,998.25
2019-04-05T05:45:16.441Z,998.30
2019-04-05T05:46:16.451Z,998.33
2019-04-05T05:47:16.478Z,998.41
2019-04-05T05:48:16.410Z,998.34
2019-04-05T05:49:16.390Z,998.38
2019-04-05T05:50:16.381Z,998.37
2019-04-05T05:51:17.027Z,998.43
2019-04-05T05:52:16.358Z,998.45
2019-04-05T05:53:16.359Z,998.49
2019-04-05T05:54:16.343Z,998.48
2019-04-05T05:55:16.330Z,998.49
2019-04-05T05:56:16.351Z,998.49
2019-04-05T05:57:16.306Z,998.47
2019-04-05T05:58:16.290Z,998.47
2019-04-05T05:59:16.295Z,998.47
2019-04-05T06:00:16.277Z,998.49
2019-04-05T06:01:16.261Z,998.54
2019-04-05T06:02:16.286Z,998.51
2019-04-05T06:03:16.753Z,998.54
2019-04-05T06:04:16.227Z,998.54
2019-04-05T06:05:16.222Z,998.55
2019-04-05T06:06:16.214Z,998.63
2019-04-05T06:07:16.227Z,998.62
2019-04-05T06:08:16.189Z,998.60
2019-04-05T06:09:16.178Z,998.56
2019-04-05T06:10:16.165Z,998.58
2019-04-05T06:11:16.150Z,998.63
2019-04-05T06:12:16.174Z,998.68
2019-04-05T06:13:16.138Z,998.68
2019-04-05T06:14:16.125Z,998.71
2019-04-05T06:15:16.108Z,998.70
2019-04-05T06:16:16.098Z,998.73
2019-04-05T06:17:16.091Z,998.74
2019-04-05T06:18:16.105Z,998.76
2019-04-05T06:19:16.071Z,998.82
2019-04-05T06:20:16.058Z,998.73
2019-04-05T06:21:16.047Z,998.81
2019-04-05T06:22:16.031Z,998.82
2019-04-05T06:23:16.075Z,998.84
2019-04-05T06:24:16.015Z,998.90
2019-04-05T06:25:16.004Z,998.83
2019-04-05T06:26:15.996Z,998.85
2019-04-05T06:27:15.982Z,998.80
2019-04-05T06:28:15.972Z,998.83
2019-04-05T06:29:15.978Z,998.88
2019-04-05T06:30:15.981Z,998.84
2019-04-05T06:31:15.941Z,998.91
2019-04-05T06:32:15.929Z,998.87
2019-04-05T06:33:15.953Z,998.87
2019-04-05T06:34:15.904Z,998.94
2019-04-05T06:35:15.919Z,998.90
2019-04-05T06:36:15.884Z,998.93
2019-04-05T06:37:15.874Z,998.89
2019-04-05T06:38:15.866Z,998.90
2019-04-05T06:39:15.884Z,998.95
2019-04-05T06:40:15.841Z,998.92
2019-04-05T06:41:15.827Z,998.95
2019-04-05T06:42:15.818Z,999.00
2019-04-05T06:43:15.834Z,999.01
2019-04-05T06:44:15.799Z,999.03
2019-04-05T06:45:15.787Z,999.02
2019-04-05T06:46:15.776Z,999.00
2019-04-05T06:47:15.762Z,999.00
2019-04-05T06:48:19.453Z,999.05
2019-04-05T06:49:15.771Z,998.90
2019-04-05T06:50:15.758Z,998.93
2019-04-05T06:51:15.738Z,998.90
2019-04-05T06:52:15.715Z,998.89
2019-04-05T06:53:15.699Z,998.93
2019-04-05T06:54:15.684Z,998.94
2019-04-05T06:55:15.699Z,998.91
2019-04-05T06:56:15.666Z,998.92
2019-04-05T06:57:15.656Z,998.92
2019-04-05T06:58:19.758Z,998.94
2019-04-05T06:59:15.635Z,998.93
2019-04-05T07:00:15.700Z,999.00
2019-04-05T07:01:15.615Z,999.01
2019-04-05T07:02:18.317Z,999.14
2019-04-05T07:03:15.591Z,999.17
2019-04-05T07:04:15.583Z,999.17
2019-04-05T07:05:15.597Z,999.23
2019-04-05T07:06:15.560Z,999.23
2019-04-05T07:07:17.890Z,999.28
2019-04-05T07:08:18.212Z,999.25
2019-04-05T07:09:15.532Z,999.29
2019-04-05T07:10:15.521Z,999.33
2019-04-05T07:11:15.561Z,999.30
2019-04-05T07:12:15.494Z,999.28
2019-04-05T07:13:15.478Z,999.28
2019-04-05T07:14:15.469Z,999.38
2019-04-05T07:15:15.552Z,999.36
2019-04-05T07:16:15.451Z,999.43
2019-04-05T07:17:15.467Z,999.43
2019-04-05T07:18:15.428Z,999.54
2019-04-05T07:19:15.422Z,999.51
2019-04-05T07:20:15.400Z,999.53
2019-04-05T07:21:17.316Z,999.60
2019-04-05T07:22:15.407Z,999.54
2019-04-05T07:23:15.375Z,999.64
2019-04-05T07:24:15.365Z,999.61
2019-04-05T07:25:15.360Z,999.61
2019-04-05T07:26:15.340Z,999.64
2019-04-05T07:27:15.357Z,999.64
2019-04-05T07:28:15.313Z,999.72
2019-04-05T07:29:15.357Z,999.71
2019-04-05T07:30:15.307Z,999.69
2019-04-05T07:31:15.286Z,999.71
2019-04-05T07:32:15.275Z,999.72
2019-04-05T07:33:15.290Z,999.68
2019-04-05T07:34:15.248Z,999.74
2019-04-05T07:35:15.266Z,999.83
2019-04-05T07:36:15.232Z,999.86
2019-04-05T07:37:15.217Z,999.88
2019-04-05T07:38:15.216Z,999.97
2019-04-05T07:39:15.218Z,999.85
2019-04-05T07:40:15.186Z,999.80
2019-04-05T07:41:15.183Z,999.84
2019-04-05T07:42:15.167Z,999.88
2019-04-05T07:43:15.204Z,999.90
2019-04-05T07:44:15.166Z,999.93
2019-04-05T07:45:15.132Z,999.92
2019-04-05T07:46:15.126Z,999.91
2019-04-05T07:47:15.108Z,999.94
2019-04-05T07:48:15.098Z,999.91
2019-04-05T07:49:15.175Z,999.92
2019-04-05T07:50:15.081Z,999.97
2019-04-05T07:51:15.073Z,999.97
2019-04-05T07:52:15.057Z,999.99
2019-04-05T07:53:15.048Z,1000.01
2019-04-05T07:54:15.058Z,999.98
2019-04-05T07:55:15.027Z,1000.03
2019-04-05T07:56:15.015Z,1000.16
2019-04-05T07:57:14.998Z,1000.02
2019-04-05T07:58:14.992Z,1000.10
2019-04-05T07:59:15.010Z,1000.13
2019-04-05T08:00:14.966Z,1000.06
2019-04-05T08:01:14.967Z,1000.08
2019-04-05T08:02:14.947Z,1000.08
2019-04-05T08:03:14.942Z,1000.10
2019-04-05T08:04:14.924Z,1000.12
2019-04-05T08:05:14.943Z,1000.12
2019-04-05T08:06:14.897Z,1000.10
2019-04-05T08:07:14.913Z,1000.09
2019-04-05T08:08:14.882Z,1000.10
2019-04-05T08:09:14.872Z,1000.10
2019-04-05T08:10:14.859Z,1000.14
2019-04-05T08:11:14.862Z,1000.11
2019-04-05T08:12:14.829Z,1000.10
2019-04-05T08:13:14.829Z,1000.11
2019-04-05T08:14:17.761Z,1000.09
2019-04-05T08:15:14.824Z,1000.10
2019-04-05T08:16:14.864Z,1000.15
2019-04-05T08:17:14.781Z,1000.10
2019-04-05T08:18:14.768Z,1000.13
2019-04-05T08:19:14.757Z,1000.07
2019-04-05T08:20:14.780Z,1000.14
2019-04-05T08:21:14.816Z,1000.12
2019-04-05T08:22:14.775Z,1000.14
2019-04-05T08:23:14.712Z,1000.15
2019-04-05T08:24:14.704Z,1000.16
2019-04-05T08:25:14.695Z,1000.13
2019-04-05T08:26:14.749Z,1000.12
2019-04-05T08:27:14.678Z,1000.14
2019-04-05T08:28:14.679Z,1000.15
2019-04-05T08:29:14.642Z,1000.16
2019-04-05T08:30:14.631Z,1000.10
2019-04-05T08:31:14.954Z,1000.17
2019-04-05T08:32:15.136Z,1000.09
2019-04-05T08:33:14.605Z,1000.07
2019-04-05T08:34:14.593Z,1000.13
2019-04-05T08:35:14.581Z,1000.16
2019-04-05T08:36:14.590Z,1000.21
2019-04-05T08:37:14.558Z,1000.20
2019-04-05T08:38:14.544Z,1000.20
2019-04-05T08:39:14.539Z,1000.13
2019-04-05T08:40:14.532Z,1000.10
2019-04-05T08:41:14.543Z,1000.12
2019-04-05T08:42:14.526Z,1000.13
2019-04-05T08:43:14.487Z,1000.10
2019-04-05T08:44:14.483Z,1000.14
2019-04-05T08:45:14.472Z,1000.16
2019-04-05T08:46:14.491Z,1000.26
2019-04-05T08:47:14.458Z,1000.21
2019-04-05T08:48:14.438Z,1000.25
2019-04-05T08:49:14.421Z,1000.27
2019-04-05T08:50:14.415Z,1000.20
2019-04-05T08:51:14.408Z,1000.22
2019-04-05T08:52:14.419Z,1000.20
2019-04-05T08:53:14.394Z,1000.18
2019-04-05T08:54:14.372Z,1000.18
2019-04-05T08:55:14.378Z,1000.18
2019-04-05T08:56:14.364Z,1000.19
2019-04-05T08:57:14.345Z,1000.19
2019-04-05T08:58:14.330Z,1000.24
2019-04-05T08:59:14.327Z,1000.18
2019-04-05T09:00:14.305Z,1000.19
2019-04-05T09:01:14.323Z,1000.21
2019-04-05T09:02:14.281Z,1000.18
2019-04-05T09:03:14.275Z,1000.23
2019-04-05T09:04:14.262Z,1000.20
2019-04-05T09:05:14.255Z,1000.20
2019-04-05T09:06:14.243Z,1000.21
2019-04-05T09:07:14.278Z,1000.17
2019-04-05T09:08:14.221Z,1000.24
2019-04-05T09:09:14.201Z,1000.26
2019-04-05T09:10:14.189Z,1000.29
2019-04-05T09:11:14.185Z,1000.29
2019-04-05T09:12:14.196Z,1000.33
2019-04-05T09:13:14.156Z,1000.33
2019-04-05T09:14:14.145Z,1000.29
2019-04-05T09:15:14.135Z,1000.25
2019-04-05T09:16:14.121Z,1000.25
2019-04-05T09:17:14.147Z,1000.25
2019-04-05T09:18:14.107Z,1000.38
2019-04-05T09:19:23.582Z,1000.39
2019-04-05T09:20:15.082Z,1000.43
2019-04-05T09:21:14.070Z,1000.41
2019-04-05T09:22:14.058Z,1000.42
2019-04-05T09:23:14.065Z,1000.44
2019-04-05T09:24:14.034Z,1000.49
2019-04-05T09:25:14.028Z,1000.57
2019-04-05T09:26:14.019Z,1000.56
2019-04-05T09:27:14.002Z,1000.58
2019-04-05T09:28:14.028Z,1000.58
2019-04-05T09:29:14.002Z,1000.57
2019-04-05T09:30:13.984Z,1000.59
2019-04-05T09:31:13.964Z,1000.56
2019-04-05T09:32:13.952Z,1000.63
2019-04-05T09:33:13.938Z,1000.58
2019-04-05T09:34:13.946Z,1000.46
2019-04-05T09:35:13.932Z,1000.47
2019-04-05T09:36:13.902Z,1000.56
2019-04-05T09:37:13.899Z,1000.54
2019-04-05T09:38:13.886Z,1000.56
2019-04-05T09:39:15.870Z,1000.51
2019-04-05T09:40:13.872Z,1000.54
2019-04-05T09:41:13.867Z,1000.48
2019-04-05T09:42:13.838Z,1000.55
2019-04-05T09:43:13.839Z,1000.54
2019-04-05T09:44:13.852Z,1000.56
2019-04-05T09:45:13.808Z,1000.65
2019-04-05T09:46:13.802Z,1000.63
2019-04-05T09:47:13.786Z,1000.63
2019-04-05T09:48:13.772Z,1000.58
2019-04-05T09:49:13.769Z,1000.60
2019-04-05T09:50:13.782Z,1000.64
2019-04-05T09:51:13.769Z,1000.67
2019-04-05T09:52:13.738Z,1000.70
2019-04-05T09:53:13.722Z,1000.69
2019-04-05T09:54:13.712Z,1000.71
2019-04-05T09:55:13.724Z,1000.68
2019-04-05T09:56:13.685Z,1000.73
2019-04-05T09:57:13.706Z,1000.76
2019-04-05T09:58:13.673Z,1000.76
2019-04-05T09:59:13.655Z,1000.76
2019-04-05T10:00:13.663Z,1000.74
2019-04-05T10:01:13.637Z,1000.73
2019-04-05T10:02:13.624Z,1000.77
2019-04-05T10:03:13.638Z,1000.78
2019-04-05T10:04:13.604Z,1000.78
2019-04-05T10:05:13.589Z,1000.78
2019-04-05T10:06:13.597Z,1000.80
2019-04-05T10:07:13.564Z,1000.78
2019-04-05T10:08:13.578Z,1000.77
2019-04-05T10:09:13.553Z,1000.86
2019-04-05T10:10:13.567Z,1000.89
2019-04-05T10:11:13.560Z,1000.82
2019-04-05T10:12:13.516Z,1000.93
2019-04-05T10:13:13.522Z,1000.99
2019-04-05T10:14:13.491Z,1000.93
2019-04-05T10:15:13.484Z,1000.94
2019-04-05T10:16:13.473Z,1000.89
2019-04-05T10:17:13.476Z,1000.91
2019-04-05T10:18:13.449Z,1000.91
2019-04-05T10:19:13.446Z,1000.96
2019-04-05T10:20:13.423Z,1000.98
2019-04-05T10:21:13.429Z,1001.02
2019-04-05T10:22:13.427Z,1001.04
2019-04-05T10:23:13.470Z,1001.01
2019-04-05T10:24:13.386Z,1001.06
2019-04-05T10:25:13.370Z,1001.01
2019-04-05T10:26:13.355Z,1001.08
2019-04-05T10:27:13.374Z,1001.06
2019-04-05T10:28:13.334Z,1001.08
2019-04-05T10:29:13.328Z,1001.05
2019-04-05T10:30:13.320Z,1001.07
2019-04-05T10:31:13.308Z,1001.08
2019-04-05T10:32:13.342Z,1001.09
2019-04-05T10:33:13.293Z,1001.11
2019-04-05T10:34:13.276Z,1001.11
2019-04-05T10:35:13.267Z,1001.11
2019-04-05T10:36:13.263Z,1001.10
2019-04-05T10:37:13.307Z,1001.04
2019-04-05T10:38:13.251Z,1001.09
2019-04-05T10:39:13.222Z,1001.09
2019-04-05T10:40:13.206Z,1001.07
2019-04-05T10:41:13.200Z,1001.06
2019-04-05T10:42:13.188Z,1001.06
2019-04-05T10:43:13.201Z,1001.07
2019-04-05T10:44:13.203Z,1001.18
2019-04-05T10:45:13.180Z,1001.12
2019-04-05T10:46:13.149Z,1001.10
2019-04-05T10:47:13.140Z,1001.16
2019-04-05T10:48:13.146Z,1001.17
2019-04-05T10:49:15.139Z,1001.16
2019-04-05T10:50:13.096Z,1001.16
2019-04-05T10:51:13.084Z,1001.12
2019-04-05T10:52:13.073Z,1001.14
2019-04-05T10:53:13.096Z,1001.15
2019-04-05T10:54:13.062Z,1001.16
2019-04-05T10:55:13.051Z,1001.16
2019-04-05T10:56:13.037Z,1001.19
2019-04-05T10:57:13.020Z,1001.21
2019-04-05T10:58:13.028Z,1001.19
2019-04-05T10:59:13.003Z,1001.18
2019-04-05T11:00:12.989Z,1001.16
2019-04-05T11:01:12.991Z,1001.14
2019-04-05T11:02:12.974Z,1001.20
2019-04-05T11:03:12.978Z,1001.28
2019-04-05T11:04:12.964Z,1001.26
2019-04-05T11:05:12.953Z,1001.29
2019-04-05T11:06:12.942Z,1001.27
2019-04-05T11:07:12.920Z,1001.32
2019-04-05T11:08:12.905Z,1001.32
2019-04-05T11:09:12.907Z,1001.38
2019-04-05T11:10:12.881Z,1001.40
2019-04-05T11:11:13.522Z,1001.41
2019-04-05T11:12:12.858Z,1001.36
2019-04-05T11:13:12.851Z,1001.37
2019-04-05T11:14:13.890Z,1001.40
2019-04-05T11:15:15.123Z,1001.42
2019-04-05T11:16:12.817Z,1001.46
2019-04-05T11:17:12.800Z,1001.42
2019-04-05T11:18:12.792Z,1001.45
2019-04-05T11:19:12.829Z,1001.43
2019-04-05T11:20:21.229Z,1001.44
2019-04-05T11:21:13.776Z,1001.43
2019-04-05T11:22:12.772Z,1001.42
2019-04-05T11:23:12.771Z,1001.45
2019-04-05T11:24:12.742Z,1001.46
2019-04-05T11:25:12.740Z,1001.43
2019-04-05T11:26:12.722Z,1001.45
2019-04-05T11:27:12.775Z,1001.49
2019-04-05T11:28:12.726Z,1001.49
2019-04-05T11:29:14.410Z,1001.42
2019-04-05T11:30:12.812Z,1001.38
2019-04-05T11:31:12.649Z,1001.38
2019-04-05T11:32:12.673Z,1001.37
2019-04-05T11:33:12.700Z,1001.39
2019-04-05T11:34:12.703Z,1001.35
2019-04-05T11:35:14.900Z,1001.37
2019-04-05T11:36:13.836Z,1001.36
2019-04-05T11:37:12.654Z,1001.33
2019-04-05T11:38:12.607Z,1001.38
2019-04-05T11:39:12.589Z,1001.43
2019-04-05T11:40:12.623Z,1001.38
2019-04-05T11:41:12.543Z,1001.39
2019-04-05T11:42:12.536Z,1001.35
2019-04-05T11:43:12.527Z,1001.40
2019-04-05T11:44:12.537Z,1001.39
2019-04-05T11:45:12.499Z,1001.44
2019-04-05T11:46:12.519Z,1001.40
2019-04-05T11:47:12.485Z,1001.40
2019-04-05T11:48:12.474Z,1001.39
2019-04-05T11:49:13.092Z,1001.47
2019-04-05T11:50:12.449Z,1001.48
2019-04-05T11:51:12.461Z,1001.52
2019-04-05T11:52:12.434Z,1001.49
2019-04-05T11:53:12.410Z,1001.48
2019-04-05T11:54:13.881Z,1001.48
2019-04-05T11:55:12.389Z,1001.45
2019-04-05T11:56:14.812Z,1001.47
2019-04-05T11:57:12.376Z,1001.41
2019-04-05T11:58:12.361Z,1001.38
2019-04-05T11:59:13.370Z,1001.41
2019-04-05T12:00:12.567Z,1001.44
2019-04-05T12:01:12.347Z,1001.46
2019-04-05T12:02:12.349Z,1001.46
2019-04-05T12:03:12.304Z,1001.46
2019-04-05T12:04:12.286Z,1001.39
2019-04-05T12:05:12.293Z,1001.46
2019-04-05T12:06:12.280Z,1001.44
2019-04-05T12:07:12.260Z,1001.48
2019-04-05T12:08:12.270Z,1001.48
2019-04-05T12:09:12.246Z,1001.55
2019-04-05T12:10:12.229Z,1001.49
2019-04-05T12:11:12.223Z,1001.48
2019-04-05T12:12:12.213Z,1001.48
2019-04-05T12:13:12.221Z,1001.51
2019-04-05T12:14:12.176Z,1001.52
2019-04-05T12:15:12.172Z,1001.52
2019-04-05T12:16:12.152Z,1001.49
2019-04-05T12:17:12.154Z,1001.50
2019-04-05T12:18:12.139Z,1001.62
2019-04-05T12:19:12.151Z,1001.59
2019-04-05T12:20:12.116Z,1001.54